Time;durP1;ratioP1;P1;durP2;ratioP2;P2;SDS_P1;SDS_P2;PMS_P1;PMS_P2;Temp;Humidity;BMP_temperature;BMP_pressure;BME280_temperature;BME280_humidity;BME280_pressure;Samples;Min_cycle;Max_cycle;Signal;HPM_P1;HPM_P2
2022/03/01 00:01:16;;;;;;;;;;;18.60;52.40;;;;;;5029189;28;19913;-65
2022/03/01 00:03:42;;;;;;;;;;;18.60;52.30;;;;;;5030085;28;19932;-65
2022/03/01 00:06:07;;;;;;;;;;;18.60;52.30;;;;;;5024053;28;19921;-63
2022/03/01 00:08:33;;;;;;;;;;;18.50;52.40;;;;;;5010500;28;20339;-66
2022/03/01 00:10:59;;;;;;;;;;;18.50;52.30;;;;;;5003439;28;19959;-66
2022/03/01 00:13:25;;;;;;;;;;;18.50;52.20;;;;;;5029043;28;19968;-67
2022/03/01 00:15:50;;;;;;;;;;;18.40;52.40;;;;;;5023184;28;19921;-64
2022/03/01 00:18:16;;;;;;;;;;;18.40;52.50;;;;;;5027657;28;19913;-65
2022/03/01 00:20:41;;;;;;;;;;;18.40;52.30;;;;;;5023457;28;20646;-65
2022/03/01 00:23:06;;;;;;;;;;;18.40;52.40;;;;;;5028567;28;19924;-63
2022/03/01 00:25:32;;;;;;;;;;;18.30;52.30;;;;;;5023830;28;19925;-66
2022/03/01 00:27:57;;;;;;;;;;;18.40;52.50;;;;;;5028485;28;20388;-63
2022/03/01 00:30:23;;;;;;;;;;;18.30;52.40;;;;;;5022846;28;19939;-63
2022/03/01 00:32:48;;;;;;;;;;;18.20;52.30;;;;;;5027230;28;19975;-64
2022/03/01 00:35:14;;;;;;;;;;;18.10;52.60;;;;;;5023234;28;19917;-65
2022/03/01 00:37:39;;;;;;;;;;;18.30;52.40;;;;;;4992867;28;19917;-66
2022/03/01 00:40:05;;;;;;;;;;;18.20;52.50;;;;;;5005055;28;19913;-66
2022/03/01 00:42:30;;;;;;;;;;;18.20;52.40;;;;;;4991906;28;19925;-67
2022/03/01 00:44:56;;;;;;;;;;;18.10;52.60;;;;;;5022214;28;19914;-65
2022/03/01 00:47:21;;;;;;;;;;;18.10;53.00;;;;;;5025750;28;19913;-65
2022/03/01 00:49:47;;;;;;;;;;;18.10;52.40;;;;;;5004278;28;19921;-66
2022/03/01 00:52:12;;;;;;;;;;;18.10;52.30;;;;;;5008764;28;19939;-66
2022/03/01 00:54:38;;;;;;;;;;;18.10;52.40;;;;;;5004723;28;20424;-65
2022/03/01 00:57:03;;;;;;;;;;;18.10;52.30;;;;;;5026885;28;19913;-65
2022/03/01 00:59:29;;;;;;;;;;;18.00;52.10;;;;;;5023555;28;19971;-66
2022/03/01 01:01:54;;;;;;;;;;;18.00;52.30;;;;;;5028577;28;19917;-67
2022/03/01 01:04:19;;;;;;;;;;;18.00;52.10;;;;;;5006507;28;20376;-67
2022/03/01 01:06:45;;;;;;;;;;;18.00;52.20;;;;;;5026962;28;20006;-67
2022/03/01 01:09:13;;;;;;;;;;;18.00;52.10;;;;;;5005019;28;19928;-63
2022/03/01 01:11:38;;;;;;;;;;;17.90;52.00;;;;;;5027651;28;20003;-67
2022/03/01 01:14:04;;;;;;;;;;;18.00;52.00;;;;;;4994767;28;19922;-64
2022/03/01 01:16:29;;;;;;;;;;;18.00;51.90;;;;;;5026020;28;19920;-66
2022/03/01 01:18:55;;;;;;;;;;;17.90;52.00;;;;;;5021334;28;19983;-67
2022/03/01 01:21:21;;;;;;;;;;;17.90;51.90;;;;;;5009290;28;19913;-66
2022/03/01 01:23:46;;;;;;;;;;;17.90;51.80;;;;;;5024085;28;19913;-67
2022/03/01 01:26:12;;;;;;;;;;;17.90;51.90;;;;;;5029098;28;19920;-67
2022/03/01 01:28:37;;;;;;;;;;;17.80;51.90;;;;;;5010724;28;19918;-64
2022/03/01 01:31:03;;;;;;;;;;;17.90;51.90;;;;;;5022530;28;20347;-66
2022/03/01 01:33:28;;;;;;;;;;;17.80;51.80;;;;;;5028094;28;19971;-64
2022/03/01 01:35:54;;;;;;;;;;;17.70;51.80;;;;;;5003915;28;19913;-67
2022/03/01 01:38:19;;;;;;;;;;;17.60;52.00;;;;;;5010669;28;19975;-67
2022/03/01 01:40:44;;;;;;;;;;;17.60;52.00;;;;;;5022166;28;19913;-67
2022/03/01 01:43:10;;;;;;;;;;;17.70;52.10;;;;;;5027194;28;19916;-65
2022/03/01 01:45:35;;;;;;;;;;;17.60;51.90;;;;;;5021234;28;19931;-65
2022/03/01 01:48:01;;;;;;;;;;;17.70;51.80;;;;;;5026438;28;19925;-67
2022/03/01 01:50:27;;;;;;;;;;;17.60;51.80;;;;;;5004459;28;20413;-67
2022/03/01 01:52:52;;;;;;;;;;;17.60;51.90;;;;;;5025716;28;19932;-63
2022/03/01 01:55:18;;;;;;;;;;;17.70;51.70;;;;;;5022527;28;20685;-67
2022/03/01 01:57:43;;;;;;;;;;;17.60;51.60;;;;;;5008041;28;19920;-65
2022/03/01 02:00:10;;;;;;;;;;;17.70;51.60;;;;;;5003541;28;19913;-64
2022/03/01 02:02:36;;;;;;;;;;;17.70;51.60;;;;;;5025027;28;19921;-64
2022/03/01 02:05:02;;;;;;;;;;;17.60;51.50;;;;;;5020911;28;20328;-66
2022/03/01 02:07:28;;;;;;;;;;;17.50;51.60;;;;;;5024863;28;19929;-65
2022/03/01 02:09:53;;;;;;;;;;;17.50;51.70;;;;;;5020044;28;19967;-66
2022/03/01 02:12:18;;;;;;;;;;;17.60;51.40;;;;;;5025663;28;20596;-66
2022/03/01 02:14:44;;;;;;;;;;;17.60;51.50;;;;;;5022277;28;19914;-67
2022/03/01 02:17:10;;;;;;;;;;;17.50;51.30;;;;;;5026235;28;19913;-66
2022/03/01 02:19:35;;;;;;;;;;;17.60;51.30;;;;;;5003008;28;19920;-64
2022/03/01 02:22:01;;;;;;;;;;;17.50;51.20;;;;;;5026043;28;19921;-65
2022/03/01 02:24:27;;;;;;;;;;;17.50;51.20;;;;;;4986823;28;20311;-63
2022/03/01 02:26:53;;;;;;;;;;;17.50;51.20;;;;;;5024841;28;19917;-66
2022/03/01 02:29:18;;;;;;;;;;;17.60;51.10;;;;;;5001164;28;19936;-65
2022/03/01 02:31:44;;;;;;;;;;;17.60;51.00;;;;;;5026064;28;19913;-66
2022/03/01 02:34:09;;;;;;;;;;;17.50;51.10;;;;;;5004065;28;19913;-63
2022/03/01 02:36:35;;;;;;;;;;;17.50;51.10;;;;;;5026392;28;19913;-66
2022/03/01 02:39:00;;;;;;;;;;;17.50;51.10;;;;;;5004851;28;20474;-65
2022/03/01 02:41:26;;;;;;;;;;;17.50;51.10;;;;;;5007136;28;19960;-65
2022/03/01 02:43:52;;;;;;;;;;;17.40;51.20;;;;;;5021096;28;20399;-63
2022/03/01 02:46:17;;;;;;;;;;;17.20;51.70;;;;;;5005757;28;19913;-66
2022/03/01 02:48:42;;;;;;;;;;;17.10;52.10;;;;;;5024453;28;19917;-66
2022/03/01 02:51:08;;;;;;;;;;;17.40;51.80;;;;;;5003808;28;20388;-63
2022/03/01 02:53:34;;;;;;;;;;;17.60;51.40;;;;;;5007194;28;19960;-64
2022/03/01 02:55:59;;;;;;;;;;;17.70;51.10;;;;;;5021117;28;19948;-63
2022/03/01 02:58:25;;;;;;;;;;;18.00;50.80;;;;;;5024253;28;19952;-67
2022/03/01 03:00:50;;;;;;;;;;;18.20;50.20;;;;;;5002134;28;20158;-64
2022/03/01 03:03:16;;;;;;;;;;;18.40;50.10;;;;;;5007120;28;19948;-64
2022/03/01 03:05:41;;;;;;;;;;;18.40;49.70;;;;;;5019937;28;19940;-67
2022/03/01 03:08:07;;;;;;;;;;;18.50;49.50;;;;;;5006092;28;19929;-64
2022/03/01 03:10:33;;;;;;;;;;;18.60;49.30;;;;;;5019520;28;24556;-64
2022/03/01 03:12:59;;;;;;;;;;;18.60;49.20;;;;;;4993212;28;19945;-64
2022/03/01 03:15:25;;;;;;;;;;;18.60;49.20;;;;;;4989039;28;20351;-65
2022/03/01 03:17:50;;;;;;;;;;;18.70;49.00;;;;;;5027564;28;19917;-63
2022/03/01 03:20:16;;;;;;;;;;;18.80;48.90;;;;;;5006666;28;19917;-63
2022/03/01 03:22:41;;;;;;;;;;;18.70;48.80;;;;;;5010580;28;19917;-64
2022/03/01 03:25:07;;;;;;;;;;;18.80;48.70;;;;;;5024497;28;20544;-65
2022/03/01 03:27:32;;;;;;;;;;;18.80;48.60;;;;;;5028124;28;21436;-65
2022/03/01 03:29:58;;;;;;;;;;;19.00;48.50;;;;;;5023978;28;20292;-66
2022/03/01 03:32:23;;;;;;;;;;;18.90;48.30;;;;;;5027103;28;19925;-65
2022/03/01 03:34:49;;;;;;;;;;;19.00;48.10;;;;;;5023852;28;19927;-66
2022/03/01 03:37:14;;;;;;;;;;;19.00;48.20;;;;;;5028738;28;19913;-63
2022/03/01 03:39:40;;;;;;;;;;;19.00;48.20;;;;;;5007384;28;19921;-66
2022/03/01 03:42:05;;;;;;;;;;;18.90;48.30;;;;;;5010414;28;19920;-63
2022/03/01 03:44:30;;;;;;;;;;;18.70;48.30;;;;;;5006467;28;19917;-63
2022/03/01 03:46:56;;;;;;;;;;;18.70;48.40;;;;;;5027033;28;19913;-66
2022/03/01 03:49:22;;;;;;;;;;;18.70;48.50;;;;;;5024015;28;19927;-66
2022/03/01 03:51:48;;;;;;;;;;;18.70;48.50;;;;;;5012753;28;19914;-66
2022/03/01 03:54:13;;;;;;;;;;;18.60;48.50;;;;;;5024785;28;19936;-67
2022/03/01 03:56:39;;;;;;;;;;;18.60;48.60;;;;;;5028097;28;19950;-66
2022/03/01 03:59:07;;;;;;;;;;;18.50;48.60;;;;;;5024404;28;19976;-66
2022/03/01 04:01:33;;;;;;;;;;;18.50;48.70;;;;;;5026693;28;19992;-66
2022/03/01 04:03:59;;;;;;;;;;;18.50;48.60;;;;;;5022960;28;19971;-65
2022/03/01 04:06:25;;;;;;;;;;;18.50;48.70;;;;;;5009682;28;19917;-66
2022/03/01 04:08:50;;;;;;;;;;;18.50;48.70;;;;;;5007074;28;19944;-62
2022/03/01 04:11:15;;;;;;;;;;;18.40;48.70;;;;;;5027659;28;19920;-65
2022/03/01 04:13:41;;;;;;;;;;;18.40;48.90;;;;;;5029289;28;20171;-67
2022/03/01 04:16:06;;;;;;;;;;;18.40;48.80;;;;;;5007037;28;19913;-66
2022/03/01 04:18:32;;;;;;;;;;;18.30;48.80;;;;;;5028548;28;19920;-66
2022/03/01 04:20:57;;;;;;;;;;;18.40;48.80;;;;;;5007163;28;20482;-65
2022/03/01 04:23:23;;;;;;;;;;;18.30;48.70;;;;;;5008644;28;19975;-67
2022/03/01 04:25:48;;;;;;;;;;;18.30;48.90;;;;;;5024325;28;19917;-65
2022/03/01 04:28:13;;;;;;;;;;;18.30;48.90;;;;;;5028617;28;19917;-66
2022/03/01 04:30:39;;;;;;;;;;;18.30;49.00;;;;;;5005541;28;20486;-64
2022/03/01 04:33:04;;;;;;;;;;;18.20;49.00;;;;;;5009104;28;19920;-64
2022/03/01 04:35:30;;;;;;;;;;;18.20;49.00;;;;;;5005636;28;19921;-64
2022/03/01 04:37:55;;;;;;;;;;;18.10;49.00;;;;;;5009471;28;19913;-64
2022/03/01 04:40:21;;;;;;;;;;;18.20;49.20;;;;;;5021637;28;20484;-66
2022/03/01 04:42:46;;;;;;;;;;;18.10;49.10;;;;;;5010400;28;19951;-65
2022/03/01 04:45:12;;;;;;;;;;;18.10;49.30;;;;;;5008227;28;19913;-66
2022/03/01 04:47:37;;;;;;;;;;;18.10;49.20;;;;;;5009159;28;19917;-62
2022/03/01 04:50:04;;;;;;;;;;;18.00;49.10;;;;;;5005820;28;19928;-63
2022/03/01 04:52:29;;;;;;;;;;;18.00;49.10;;;;;;4993061;28;19917;-62
2022/03/01 04:54:54;;;;;;;;;;;18.00;49.10;;;;;;5013602;28;19935;-65
2022/03/01 04:57:20;;;;;;;;;;;18.00;49.10;;;;;;4992654;28;19917;-62
2022/03/01 04:59:46;;;;;;;;;;;18.00;49.10;;;;;;5026125;28;19918;-64
2022/03/01 05:02:11;;;;;;;;;;;18.00;49.10;;;;;;5027303;28;19959;-64
2022/03/01 05:04:37;;;;;;;;;;;18.00;49.10;;;;;;5026819;28;19917;-66
2022/03/01 05:07:02;;;;;;;;;;;18.00;49.00;;;;;;5026250;28;19929;-62
2022/03/01 05:09:28;;;;;;;;;;;18.00;49.10;;;;;;5026585;28;19928;-62
2022/03/01 05:11:53;;;;;;;;;;;18.00;49.10;;;;;;5027399;28;19919;-68
2022/03/01 05:14:19;;;;;;;;;;;18.00;49.10;;;;;;5009742;28;20362;-66
2022/03/01 05:16:45;;;;;;;;;;;18.00;49.10;;;;;;5026575;28;19959;-65
2022/03/01 05:19:11;;;;;;;;;;;18.00;49.10;;;;;;5008758;28;19952;-66
2022/03/01 05:21:37;;;;;;;;;;;18.00;48.90;;;;;;5025398;28;19964;-65
2022/03/01 05:24:02;;;;;;;;;;;18.00;48.80;;;;;;5007865;28;19920;-66
2022/03/01 05:26:28;;;;;;;;;;;18.10;48.80;;;;;;5025823;28;20126;-66
2022/03/01 05:28:53;;;;;;;;;;;18.10;48.80;;;;;;5009019;28;20280;-64
2022/03/01 05:31:19;;;;;;;;;;;18.10;48.80;;;;;;5025979;28;19913;-64
2022/03/01 05:33:45;;;;;;;;;;;18.10;48.60;;;;;;5024258;28;19921;-63
2022/03/01 05:36:10;;;;;;;;;;;18.00;48.80;;;;;;5025471;28;19936;-63
2022/03/01 05:38:36;;;;;;;;;;;18.00;49.00;;;;;;5009375;28;19936;-63
2022/03/01 05:41:04;;;;;;;;;;;18.00;49.10;;;;;;5010602;28;19914;-63
2022/03/01 05:43:30;;;;;;;;;;;18.00;48.90;;;;;;5011341;28;19917;-65
2022/03/01 05:45:55;;;;;;;;;;;18.20;49.10;;;;;;5026475;28;19992;-63
2022/03/01 05:48:21;;;;;;;;;;;18.40;48.80;;;;;;5025194;28;20307;-63
2022/03/01 05:50:46;;;;;;;;;;;18.40;48.80;;;;;;5025836;28;19920;-64
2022/03/01 05:53:12;;;;;;;;;;;18.50;48.70;;;;;;5026928;28;20230;-64
2022/03/01 05:55:37;;;;;;;;;;;18.50;48.80;;;;;;5025352;28;19928;-64
2022/03/01 05:58:03;;;;;;;;;;;18.50;48.90;;;;;;5026902;28;19921;-64
2022/03/01 06:00:28;;;;;;;;;;;18.50;48.70;;;;;;5008206;28;19917;-65
2022/03/01 06:02:54;;;;;;;;;;;18.50;48.90;;;;;;5027868;28;19975;-63
2022/03/01 06:05:19;;;;;;;;;;;18.50;48.90;;;;;;5029375;28;19913;-63
2022/03/01 06:07:44;;;;;;;;;;;18.50;49.00;;;;;;5008880;28;19921;-63
2022/03/01 06:10:10;;;;;;;;;;;18.40;49.10;;;;;;4992196;28;19913;-58
2022/03/01 06:12:35;;;;;;;;;;;18.40;49.10;;;;;;5009290;28;20530;-62
2022/03/01 06:15:01;;;;;;;;;;;18.40;49.20;;;;;;5027293;28;19914;-64
2022/03/01 06:17:27;;;;;;;;;;;18.40;49.30;;;;;;4992769;28;19964;-63
2022/03/01 06:19:52;;;;;;;;;;;18.30;49.40;;;;;;5024151;28;20016;-62
2022/03/01 06:22:17;;;;;;;;;;;18.40;49.30;;;;;;4993832;28;20641;-63
2022/03/01 06:24:43;;;;;;;;;;;18.40;49.20;;;;;;5010414;28;19913;-63
2022/03/01 06:27:09;;;;;;;;;;;18.40;49.10;;;;;;5011845;28;19960;-64
2022/03/01 06:29:34;;;;;;;;;;;18.30;48.90;;;;;;5010927;28;19948;-63
2022/03/01 06:31:59;;;;;;;;;;;18.30;48.80;;;;;;5009475;28;19958;-63
2022/03/01 06:34:25;;;;;;;;;;;18.40;48.70;;;;;;5028804;28;19924;-63
2022/03/01 06:36:50;;;;;;;;;;;18.40;48.60;;;;;;5028935;28;19939;-64
2022/03/01 06:39:16;;;;;;;;;;;18.30;48.40;;;;;;5026543;28;20372;-64
2022/03/01 06:41:41;;;;;;;;;;;18.40;48.20;;;;;;5026233;28;19921;-62
2022/03/01 06:44:07;;;;;;;;;;;18.30;48.10;;;;;;5025503;28;19921;-63
2022/03/01 06:46:32;;;;;;;;;;;18.30;48.10;;;;;;5024730;28;19920;-64
2022/03/01 06:48:58;;;;;;;;;;;18.30;48.10;;;;;;5024335;28;20220;-64
2022/03/01 06:51:24;;;;;;;;;;;18.30;48.00;;;;;;5011607;28;19920;-63
2022/03/01 06:53:49;;;;;;;;;;;18.30;48.00;;;;;;5011272;28;20055;-64
2022/03/01 06:56:14;;;;;;;;;;;18.30;48.00;;;;;;5008903;28;20693;-64
2022/03/01 06:58:40;;;;;;;;;;;18.30;48.20;;;;;;5024461;28;19917;-63
2022/03/01 07:01:05;;;;;;;;;;;18.30;48.30;;;;;;5024834;28;19913;-64
2022/03/01 07:03:31;;;;;;;;;;;18.20;48.50;;;;;;5023471;28;19929;-64
2022/03/01 07:05:56;;;;;;;;;;;18.20;48.70;;;;;;5024521;28;20399;-64
2022/03/01 07:08:23;;;;;;;;;;;18.00;49.30;;;;;;5024318;28;19922;-63
2022/03/01 07:10:48;;;;;;;;;;;18.10;49.50;;;;;;5007396;28;19913;-64
2022/03/01 07:13:14;;;;;;;;;;;18.00;49.70;;;;;;5015019;28;19932;-63
2022/03/01 07:15:39;;;;;;;;;;;18.20;49.50;;;;;;5023883;28;19940;-64
2022/03/01 07:18:05;;;;;;;;;;;18.20;49.50;;;;;;5012961;28;19918;-64
2022/03/01 07:20:30;;;;;;;;;;;18.30;49.50;;;;;;5008733;28;19925;-64
2022/03/01 07:22:56;;;;;;;;;;;18.30;49.30;;;;;;5026864;28;19975;-64
2022/03/01 07:25:21;;;;;;;;;;;18.40;49.30;;;;;;5027254;28;19960;-65
2022/03/01 07:27:50;;;;;;;;;;;18.50;49.20;;;;;;5010507;28;19916;-65
2022/03/01 07:30:17;;;;;;;;;;;18.50;49.20;;;;;;5000471;28;19917;-64
2022/03/01 07:32:42;;;;;;;;;;;18.60;49.20;;;;;;5017573;28;19921;-64
2022/03/01 07:35:07;;;;;;;;;;;18.60;49.10;;;;;;5025608;28;19926;-64
2022/03/01 07:37:34;;;;;;;;;;;18.60;49.20;;;;;;5028108;28;19917;-63
2022/03/01 07:40:00;;;;;;;;;;;18.60;49.30;;;;;;5028461;28;19959;-64
2022/03/01 07:42:26;;;;;;;;;;;18.80;49.30;;;;;;5029288;28;19924;-65
2022/03/01 07:44:51;;;;;;;;;;;18.70;49.20;;;;;;5030133;28;20519;-63
2022/03/01 07:47:16;;;;;;;;;;;18.80;49.10;;;;;;5010633;28;19917;-63
2022/03/01 07:49:43;;;;;;;;;;;18.90;49.10;;;;;;5027198;28;19916;-65
2022/03/01 07:52:09;;;;;;;;;;;18.90;49.00;;;;;;5009961;28;19925;-66
2022/03/01 07:54:34;;;;;;;;;;;18.80;49.00;;;;;;5012458;28;19920;-68
2022/03/01 07:56:59;;;;;;;;;;;18.90;49.10;;;;;;5026432;28;19925;-67
2022/03/01 07:59:25;;;;;;;;;;;18.90;49.10;;;;;;5016444;28;20461;-69
2022/03/01 08:01:51;;;;;;;;;;;18.90;49.10;;;;;;5013949;28;19921;-68
2022/03/01 08:04:16;;;;;;;;;;;18.90;49.10;;;;;;5015337;28;19959;-68
2022/03/01 08:06:41;;;;;;;;;;;18.90;49.20;;;;;;5033077;28;19913;-68
2022/03/01 08:09:07;;;;;;;;;;;18.80;49.10;;;;;;5032144;28;20011;-68
2022/03/01 08:11:32;;;;;;;;;;;18.80;49.30;;;;;;4999417;28;19923;-66
2022/03/01 08:13:58;;;;;;;;;;;18.80;49.40;;;;;;5032824;28;19917;-69
2022/03/01 08:16:23;;;;;;;;;;;18.70;49.50;;;;;;5032009;28;20063;-69
2022/03/01 08:18:49;;;;;;;;;;;18.60;49.50;;;;;;5032138;28;19920;-69
2022/03/01 08:21:14;;;;;;;;;;;18.50;49.60;;;;;;5031774;28;19982;-69
2022/03/01 08:23:42;;;;;;;;;;;18.50;49.80;;;;;;5030812;28;20438;-68
2022/03/01 08:26:07;;;;;;;;;;;18.40;49.70;;;;;;5014446;28;19924;-68
2022/03/01 08:28:33;;;;;;;;;;;18.50;50.00;;;;;;5031361;28;20067;-67
2022/03/01 08:30:59;;;;;;;;;;;18.60;50.00;;;;;;5032540;28;19917;-68
2022/03/01 08:33:24;;;;;;;;;;;18.70;49.80;;;;;;5031587;28;20101;-69
2022/03/01 08:35:50;;;;;;;;;;;18.90;49.50;;;;;;5013699;28;19917;-69
2022/03/01 08:38:15;;;;;;;;;;;19.00;49.30;;;;;;5032225;28;20346;-69
2022/03/01 08:40:41;;;;;;;;;;;19.00;49.20;;;;;;5013387;28;19920;-66
2022/03/01 08:43:06;;;;;;;;;;;19.10;49.20;;;;;;5029572;28;19917;-67
2022/03/01 08:45:32;;;;;;;;;;;19.20;49.10;;;;;;5011893;28;19956;-67
2022/03/01 08:47:57;;;;;;;;;;;19.20;49.10;;;;;;5030579;28;20530;-68
2022/03/01 08:50:23;;;;;;;;;;;19.30;48.90;;;;;;5013868;28;20091;-68
2022/03/01 08:52:49;;;;;;;;;;;19.30;48.70;;;;;;5027974;28;19917;-67
2022/03/01 08:55:14;;;;;;;;;;;19.30;48.70;;;;;;5027626;28;19913;-66
2022/03/01 08:57:40;;;;;;;;;;;19.40;48.50;;;;;;5027557;28;19972;-68
2022/03/01 09:00:06;;;;;;;;;;;19.30;48.40;;;;;;5024942;28;19918;-66
2022/03/01 09:02:31;;;;;;;;;;;19.40;48.30;;;;;;5027157;28;19940;-68
2022/03/01 09:04:57;;;;;;;;;;;19.30;48.20;;;;;;5011023;28;19939;-64
2022/03/01 09:07:22;;;;;;;;;;;19.30;48.20;;;;;;5026285;28;19913;-66
2022/03/01 09:09:48;;;;;;;;;;;19.30;48.30;;;;;;5027828;28;19913;-67
2022/03/01 09:12:13;;;;;;;;;;;19.30;48.40;;;;;;5013720;28;19913;-66
2022/03/01 09:14:39;;;;;;;;;;;19.10;48.80;;;;;;5016116;28;19921;-66
2022/03/01 09:17:04;;;;;;;;;;;19.10;48.80;;;;;;5029430;28;19917;-67
2022/03/01 09:19:29;;;;;;;;;;;19.10;48.80;;;;;;5028445;28;19916;-66
2022/03/01 09:21:56;;;;;;;;;;;19.00;48.80;;;;;;5029241;28;19913;-67
2022/03/01 09:24:21;;;;;;;;;;;19.00;48.90;;;;;;5028743;28;19909;-67
2022/03/01 09:26:47;;;;;;;;;;;19.00;48.90;;;;;;5029426;28;19913;-67
2022/03/01 09:29:12;;;;;;;;;;;19.10;48.90;;;;;;5029665;28;19917;-68
2022/03/01 09:31:38;;;;;;;;;;;19.00;48.80;;;;;;5029029;28;19933;-64
2022/03/01 09:34:03;;;;;;;;;;;19.00;48.70;;;;;;5025601;28;19960;-67
2022/03/01 09:36:29;;;;;;;;;;;19.00;48.70;;;;;;5030510;28;19921;-67
2022/03/01 09:38:54;;;;;;;;;;;19.00;48.60;;;;;;5030104;28;19909;-66
2022/03/01 09:41:20;;;;;;;;;;;19.10;48.60;;;;;;5030979;28;20364;-66
2022/03/01 09:43:45;;;;;;;;;;;19.00;48.50;;;;;;5012253;28;19918;-66
2022/03/01 09:46:11;;;;;;;;;;;19.00;48.50;;;;;;5011839;28;20320;-66
2022/03/01 09:48:36;;;;;;;;;;;19.00;48.40;;;;;;5030359;28;19910;-67
2022/03/01 09:51:02;;;;;;;;;;;19.00;48.30;;;;;;5030831;28;19913;-66
2022/03/01 09:53:28;;;;;;;;;;;19.00;48.30;;;;;;5011469;28;19909;-65
2022/03/01 09:55:54;;;;;;;;;;;19.10;48.00;;;;;;5029222;28;19967;-66
2022/03/01 09:58:19;;;;;;;;;;;19.10;47.90;;;;;;5012029;28;20580;-67
2022/03/01 10:00:45;;;;;;;;;;;19.10;47.90;;;;;;5030600;28;19917;-67
2022/03/01 10:03:13;;;;;;;;;;;19.10;47.90;;;;;;5012006;28;19925;-66
2022/03/01 10:05:39;;;;;;;;;;;19.10;47.70;;;;;;5030620;28;19916;-66
2022/03/01 10:08:12;;;;;;;;;;;19.10;47.80;;;;;;5028477;28;19917;-67
2022/03/01 10:10:38;;;;;;;;;;;19.10;47.90;;;;;;5029513;28;19977;-67
2022/03/01 10:13:04;;;;;;;;;;;19.10;47.90;;;;;;5031282;28;19975;-67
2022/03/01 10:15:31;;;;;;;;;;;19.00;47.70;;;;;;5029456;28;19913;-65
2022/03/01 10:17:56;;;;;;;;;;;19.00;47.90;;;;;;5011557;28;19910;-66
2022/03/01 10:20:22;;;;;;;;;;;19.10;47.90;;;;;;5027832;28;19913;-67
2022/03/01 10:22:51;;;;;;;;;;;19.00;47.80;;;;;;5030152;28;19913;-66
2022/03/01 10:25:17;;;;;;;;;;;19.10;47.70;;;;;;5030413;28;19913;-66
2022/03/01 10:27:44;;;;;;;;;;;19.10;47.80;;;;;;5029421;28;20372;-67
2022/03/01 10:30:09;;;;;;;;;;;19.00;47.80;;;;;;5029089;28;19928;-66
2022/03/01 10:32:35;;;;;;;;;;;19.10;47.80;;;;;;5010931;28;19909;-66
2022/03/01 10:35:04;;;;;;;;;;;19.00;47.80;;;;;;5029579;28;19948;-66
2022/03/01 10:37:31;;;;;;;;;;;19.00;47.70;;;;;;5009653;28;19909;-66
2022/03/01 10:40:08;;;;;;;;;;;19.10;47.80;;;;;;5030040;28;20392;-67
2022/03/01 10:42:34;;;;;;;;;;;19.00;47.80;;;;;;5028248;28;19912;-66
2022/03/01 10:44:59;;;;;;;;;;;19.10;47.70;;;;;;5028130;28;19909;-66
2022/03/01 10:47:24;;;;;;;;;;;19.10;47.70;;;;;;5010402;28;20384;-66
2022/03/01 10:49:58;;;;;;;;;;;19.00;47.70;;;;;;5010984;28;19929;-67
2022/03/01 10:52:24;;;;;;;;;;;19.00;47.70;;;;;;5007582;28;19959;-67
2022/03/01 10:54:49;;;;;;;;;;;19.10;47.70;;;;;;5011876;28;19920;-67
2022/03/01 10:57:21;;;;;;;;;;;19.10;47.70;;;;;;5029103;28;19909;-66
2022/03/01 10:59:47;;;;;;;;;;;19.00;47.60;;;;;;4995719;28;19921;-68
2022/03/01 11:02:12;;;;;;;;;;;19.10;47.70;;;;;;5029690;28;19913;-67
2022/03/01 11:04:38;;;;;;;;;;;19.10;47.50;;;;;;5012093;28;19916;-67
2022/03/01 11:07:04;;;;;;;;;;;19.00;47.60;;;;;;5030122;28;19920;-65
2022/03/01 11:09:30;;;;;;;;;;;19.10;47.50;;;;;;5031674;28;19920;-67
2022/03/01 11:11:56;;;;;;;;;;;19.10;47.50;;;;;;5032011;28;19909;-67
2022/03/01 11:14:41;;;;;;;;;;;19.10;47.50;;;;;;5031256;28;20299;-66
2022/03/01 11:17:24;;;;;;;;;;;19.10;47.50;;;;;;5028826;28;19958;-65
2022/03/01 11:19:56;;;;;;;;;;;19.00;47.50;;;;;;5011785;28;20189;-67
2022/03/01 11:22:25;;;;;;;;;;;19.10;47.40;;;;;;5013183;28;19913;-68
2022/03/01 11:24:51;;;;;;;;;;;19.10;47.40;;;;;;4988491;28;19909;-66
2022/03/01 11:27:20;;;;;;;;;;;19.20;47.30;;;;;;5032169;28;19972;-67
2022/03/01 11:29:46;;;;;;;;;;;19.10;47.30;;;;;;5013470;28;19916;-67
2022/03/01 11:32:12;;;;;;;;;;;19.10;47.30;;;;;;5033402;28;20013;-67
2022/03/01 11:34:39;;;;;;;;;;;19.10;47.20;;;;;;5037081;28;19913;-67
2022/03/01 11:37:04;;;;;;;;;;;19.10;47.40;;;;;;5019134;28;19917;-66
2022/03/01 11:39:31;;;;;;;;;;;19.10;47.30;;;;;;5017623;28;19925;-65
2022/03/01 11:42:21;;;;;;;;;;;19.10;47.40;;;;;;5035363;28;19921;-66
2022/03/01 11:44:53;;;;;;;;;;;19.10;47.40;;;;;;5010017;28;20016;-62
2022/03/01 11:47:26;;;;;;;;;;;19.10;47.30;;;;;;5017744;28;20006;-66
2022/03/01 11:49:51;;;;;;;;;;;19.10;47.20;;;;;;5037183;28;19916;-66
2022/03/01 11:52:20;;;;;;;;;;;19.10;47.30;;;;;;5017497;28;19909;-67
2022/03/01 11:54:46;;;;;;;;;;;19.10;47.30;;;;;;5037085;28;19921;-68
2022/03/01 11:57:11;;;;;;;;;;;19.20;47.20;;;;;;5035977;28;19921;-66
2022/03/01 11:59:37;;;;;;;;;;;19.20;47.20;;;;;;4999005;28;19948;-67
2022/03/01 12:02:03;;;;;;;;;;;19.20;47.20;;;;;;5034195;28;20239;-68
2022/03/01 12:04:28;;;;;;;;;;;19.20;47.50;;;;;;5020514;28;20665;-67
2022/03/01 12:06:56;;;;;;;;;;;19.30;47.90;;;;;;5019888;28;19917;-67
2022/03/01 12:09:25;;;;;;;;;;;19.20;48.10;;;;;;5035509;28;19920;-67
2022/03/01 12:12:01;;;;;;;;;;;19.20;48.40;;;;;;5015393;28;19917;-67
2022/03/01 12:14:28;;;;;;;;;;;19.30;48.50;;;;;;5032164;28;19956;-67
2022/03/01 12:16:53;;;;;;;;;;;19.30;48.70;;;;;;5033680;28;19966;-67
2022/03/01 12:19:19;;;;;;;;;;;19.30;48.80;;;;;;5032786;28;20505;-68
2022/03/01 12:21:49;;;;;;;;;;;19.30;48.80;;;;;;5015088;28;19909;-68
2022/03/01 12:24:15;;;;;;;;;;;19.30;48.70;;;;;;5027866;28;19916;-67
2022/03/01 12:26:41;;;;;;;;;;;19.30;48.70;;;;;;5032466;28;19909;-68
2022/03/01 12:29:07;;;;;;;;;;;19.30;48.80;;;;;;4997654;28;20581;-67
2022/03/01 12:31:32;;;;;;;;;;;19.40;48.90;;;;;;5014282;28;19909;-67
2022/03/01 12:34:04;;;;;;;;;;;19.30;48.90;;;;;;5034431;28;19994;-67
2022/03/01 12:36:37;;;;;;;;;;;19.30;48.90;;;;;;5032633;28;20319;-67
2022/03/01 12:39:02;;;;;;;;;;;19.30;48.90;;;;;;5018044;28;19909;-67
2022/03/01 12:41:28;;;;;;;;;;;19.40;49.00;;;;;;5034409;28;20017;-68
2022/03/01 12:43:54;;;;;;;;;;;19.30;49.00;;;;;;5034724;28;19913;-66
2022/03/01 12:46:20;;;;;;;;;;;19.40;49.10;;;;;;4989530;28;19909;-68
2022/03/01 12:48:47;;;;;;;;;;;19.30;49.10;;;;;;5015690;28;19947;-68
2022/03/01 12:51:13;;;;;;;;;;;19.30;49.00;;;;;;5035175;28;19909;-68
2022/03/01 12:53:38;;;;;;;;;;;19.30;49.10;;;;;;5034372;28;19909;-68
2022/03/01 12:56:04;;;;;;;;;;;19.20;49.20;;;;;;5016145;28;19963;-69
2022/03/01 12:58:29;;;;;;;;;;;19.30;49.10;;;;;;5016713;28;19917;-68
2022/03/01 13:01:05;;;;;;;;;;;19.30;48.70;;;;;;5035606;28;20000;-68
2022/03/01 13:03:30;;;;;;;;;;;19.30;48.30;;;;;;5017945;28;20107;-67
2022/03/01 13:06:22;;;;;;;;;;;19.20;48.20;;;;;;5022767;28;20378;-67
2022/03/01 13:08:52;;;;;;;;;;;19.20;48.20;;;;;;5028296;28;19933;-67
2022/03/01 13:11:17;;;;;;;;;;;19.10;48.00;;;;;;5035187;28;19914;-67
2022/03/01 13:13:43;;;;;;;;;;;19.00;47.90;;;;;;5034938;28;19913;-66
2022/03/01 13:16:08;;;;;;;;;;;19.00;47.50;;;;;;5034787;28;19971;-67
2022/03/01 13:18:33;;;;;;;;;;;19.00;47.60;;;;;;5035230;28;19940;-68
2022/03/01 13:20:59;;;;;;;;;;;18.80;47.50;;;;;;5035066;28;19996;-68
2022/03/01 13:23:28;;;;;;;;;;;18.70;47.70;;;;;;5037156;28;19932;-67
2022/03/01 13:25:54;;;;;;;;;;;18.80;47.20;;;;;;5033665;28;20342;-67
2022/03/01 13:28:28;;;;;;;;;;;18.80;46.80;;;;;;4998382;28;19913;-68
2022/03/01 13:30:54;;;;;;;;;;;18.90;46.60;;;;;;5024524;28;20431;-67
2022/03/01 13:33:19;;;;;;;;;;;18.90;46.40;;;;;;5029521;28;20287;-67
2022/03/01 13:35:46;;;;;;;;;;;19.00;46.20;;;;;;5030481;28;19971;-67
2022/03/01 13:38:17;;;;;;;;;;;19.00;46.00;;;;;;5029814;28;19917;-68
2022/03/01 13:40:43;;;;;;;;;;;19.00;45.90;;;;;;5012600;28;19953;-67
2022/03/01 13:43:09;;;;;;;;;;;19.00;45.70;;;;;;5029812;28;20360;-67
2022/03/01 13:45:35;;;;;;;;;;;19.00;45.50;;;;;;5013315;28;19913;-68
2022/03/01 13:48:10;;;;;;;;;;;19.10;45.50;;;;;;5012253;28;19909;-68
2022/03/01 13:50:36;;;;;;;;;;;19.00;45.20;;;;;;5030830;28;19920;-67
2022/03/01 13:53:08;;;;;;;;;;;19.00;45.20;;;;;;5012128;28;20545;-67
2022/03/01 13:55:35;;;;;;;;;;;19.10;45.10;;;;;;5029359;28;19939;-68
2022/03/01 13:58:00;;;;;;;;;;;19.10;45.10;;;;;;5030247;28;19968;-67
2022/03/01 14:00:32;;;;;;;;;;;19.00;45.10;;;;;;5030873;28;19913;-67
2022/03/01 14:02:59;;;;;;;;;;;19.00;45.10;;;;;;5029432;28;19920;-67
2022/03/01 14:05:25;;;;;;;;;;;19.00;45.00;;;;;;5011881;28;19909;-66
2022/03/01 14:08:03;;;;;;;;;;;19.00;45.10;;;;;;5029701;28;19928;-67
2022/03/01 14:10:29;;;;;;;;;;;19.10;45.10;;;;;;5029364;28;19916;-67